Time;durP1;ratioP1;P1;durP2;ratioP2;P2;SDS_P1;SDS_P2;PMS_P1;PMS_P2;Temp;Humidity;BMP_temperature;BMP_pressure;BME280_temperature;BME280_humidity;BME280_pressure;Samples;Min_cycle;Max_cycle;Signal;HPM_P1;HPM_P2
2022/04/29 05:01:05;;;;;;;8.70;6.93;;;6.30;99.90;;;;;;5696428;23;20334;-80
2022/04/29 05:03:34;;;;;;;9.20;6.38;;;6.20;99.90;;;;;;5024538;28;20065;-80
2022/04/29 05:06:01;;;;;;;8.45;5.93;;;6.40;99.90;;;;;;5025456;28;20044;-83
2022/04/29 05:08:28;;;;;;;8.68;6.05;;;6.60;99.90;;;;;;5029484;28;20156;-80
2022/04/29 05:10:55;;;;;;;9.95;6.72;;;6.90;99.90;;;;;;5027646;28;20136;-80
2022/04/29 05:13:22;;;;;;;8.55;6.15;;;6.70;99.90;;;;;;5032361;28;20063;-80
2022/04/29 05:15:49;;;;;;;9.93;6.30;;;6.90;99.90;;;;;;5031724;28;20136;-80
2022/04/29 05:18:18;;;;;;;9.40;6.93;;;7.00;99.90;;;;;;5032180;28;20129;-80
2022/04/29 05:20:45;;;;;;;10.05;6.75;;;7.10;99.90;;;;;;5032844;28;20156;-80
2022/04/29 05:23:12;;;;;;;8.93;6.63;;;7.00;99.90;;;;;;5030992;28;20084;-81
2022/04/29 05:25:39;;;;;;;12.35;7.18;;;6.90;99.90;;;;;;5022585;28;20136;-82
2022/04/29 05:28:08;;;;;;;10.43;6.50;;;7.10;99.90;;;;;;5028046;28;20128;-80
2022/04/29 05:30:36;;;;;;;8.70;6.35;;;7.10;99.90;;;;;;5025316;28;20057;-79
2022/04/29 05:33:03;;;;;;;9.02;6.50;;;7.30;99.90;;;;;;5029975;28;20088;-79
2022/04/29 05:35:33;;;;;;;8.98;6.60;;;7.40;99.90;;;;;;5031767;28;20128;-79
2022/04/29 05:38:02;;;;;;;9.07;6.55;;;7.50;99.90;;;;;;5032956;28;20132;-79
2022/04/29 05:43:13;;;;;;;10.00;6.80;;;7.50;99.90;;;;;;5030091;28;20127;-79
2022/04/29 05:45:40;;;;;;;9.25;6.43;;;7.50;99.90;;;;;;5031184;28;20046;-80
2022/04/29 05:48:08;;;;;;;10.20;7.05;;;7.60;99.90;;;;;;5032173;28;20495;-80
2022/04/29 05:50:37;;;;;;;9.43;6.72;;;7.50;99.90;;;;;;5031791;28;20120;-79
2022/04/29 05:53:04;;;;;;;10.50;7.78;;;7.80;99.90;;;;;;5031357;28;20124;-79
2022/04/29 05:55:31;;;;;;;9.20;6.50;;;7.80;99.90;;;;;;5030056;28;20132;-80
2022/04/29 05:57:58;;;;;;;9.90;7.18;;;7.90;99.90;;;;;;5032603;28;20128;-80
2022/04/29 06:00:26;;;;;;;11.32;7.38;;;7.90;99.90;;;;;;5026531;28;20451;-80
2022/04/29 06:02:53;;;;;;;9.15;6.97;;;7.60;99.90;;;;;;5031389;28;20096;-81
2022/04/29 06:05:20;;;;;;;10.18;7.03;;;7.50;99.90;;;;;;5031089;28;20428;-81
2022/04/29 06:07:49;;;;;;;9.85;7.07;;;7.50;99.90;;;;;;5032289;28;20050;-81
2022/04/29 06:10:16;;;;;;;9.15;6.90;;;7.40;99.90;;;;;;5028204;28;20484;-81
2022/04/29 06:12:44;;;;;;;9.52;7.10;;;7.50;99.90;;;;;;5025283;28;20049;-81
2022/04/29 06:15:16;;;;;;;9.55;6.75;;;7.60;99.90;;;;;;5030976;28;20472;-83
2022/04/29 06:17:43;;;;;;;10.15;7.15;;;7.70;99.90;;;;;;5025362;28;20049;-84
2022/04/29 06:20:12;;;;;;;9.45;6.63;;;7.80;99.90;;;;;;5024454;28;20132;-83
2022/04/29 06:22:44;;;;;;;10.45;6.95;;;7.80;99.90;;;;;;5031516;28;20128;-83
2022/04/29 06:25:12;;;;;;;9.68;6.97;;;7.80;99.90;;;;;;5031769;28;20407;-80
2022/04/29 06:27:41;;;;;;;9.70;7.15;;;7.90;99.90;;;;;;5033790;28;20128;-81
2022/04/29 06:30:10;;;;;;;10.40;7.00;;;7.90;99.90;;;;;;5022803;28;20060;-81
2022/04/29 06:32:37;;;;;;;9.25;6.70;;;8.00;99.90;;;;;;5013803;28;20171;-82
2022/04/29 06:35:06;;;;;;;10.90;7.40;;;8.10;99.90;;;;;;5023163;28;20125;-81
2022/04/29 06:37:33;;;;;;;11.10;7.68;;;8.00;99.90;;;;;;5029306;28;20045;-81
2022/04/29 06:40:00;;;;;;;9.40;6.97;;;8.20;99.90;;;;;;5030662;28;20128;-81
2022/04/29 06:42:29;;;;;;;10.05;7.30;;;8.40;99.90;;;;;;5030914;28;20136;-80
2022/04/29 06:44:56;;;;;;;10.10;7.35;;;8.50;99.90;;;;;;5029562;28;20141;-80
2022/04/29 06:47:23;;;;;;;9.88;7.32;;;8.70;99.90;;;;;;5030205;28;20811;-79
2022/04/29 06:49:51;;;;;;;9.65;7.40;;;8.70;99.90;;;;;;5030485;28;20073;-80
2022/04/29 06:52:18;;;;;;;11.30;7.97;;;8.90;99.90;;;;;;5029434;28;20053;-80
2022/04/29 06:54:45;;;;;;;10.38;7.30;;;8.80;99.90;;;;;;5030080;28;20068;-80
2022/04/29 06:57:12;;;;;;;10.05;8.18;;;8.90;99.90;;;;;;5026545;28;20037;-80
2022/04/29 06:59:41;;;;;;;9.80;7.25;;;8.90;99.90;;;;;;5024009;28;20050;-80
2022/04/29 07:02:08;;;;;;;11.13;8.43;;;9.00;99.90;;;;;;5028634;28;20136;-80
2022/04/29 07:04:35;;;;;;;10.48;7.78;;;9.10;99.90;;;;;;5030112;28;20409;-80
2022/04/29 07:07:02;;;;;;;11.95;7.68;;;9.10;99.90;;;;;;5030174;28;20136;-80
2022/04/29 07:09:29;;;;;;;11.75;7.78;;;9.30;99.90;;;;;;5028027;28;20128;-80
2022/04/29 07:11:56;;;;;;;9.32;7.25;;;9.40;99.90;;;;;;5032930;28;20056;-80
2022/04/29 07:14:23;;;;;;;10.80;7.93;;;9.60;99.90;;;;;;5018546;28;20100;-80
2022/04/29 07:16:55;;;;;;;10.65;7.40;;;9.70;99.90;;;;;;5021518;28;20088;-82
2022/04/29 07:19:22;;;;;;;8.88;6.60;;;9.70;99.90;;;;;;5029472;28;20054;-80
2022/04/29 07:21:50;;;;;;;10.07;7.20;;;9.90;99.90;;;;;;5031142;28;20058;-79
2022/04/29 07:24:18;;;;;;;9.50;7.07;;;10.00;99.90;;;;;;5029226;28;20046;-79
2022/04/29 07:26:45;;;;;;;9.77;7.05;;;10.10;99.90;;;;;;5018540;28;20046;-79
2022/04/29 07:29:12;;;;;;;10.13;6.55;;;10.10;99.90;;;;;;5027389;28;20136;-79
2022/04/29 07:31:40;;;;;;;11.70;7.88;;;10.30;99.90;;;;;;5026573;28;20140;-79
2022/04/29 07:34:08;;;;;;;9.75;7.32;;;10.40;99.90;;;;;;5029242;28;20577;-80
2022/04/29 07:42:05;;;;;;;;;;;10.70;99.90;;;;;;5027137;28;20057;-79
2022/04/29 07:44:33;;;;;;;8.18;6.30;;;10.80;99.90;;;;;;5026687;28;20399;-78
2022/04/29 07:47:01;;;;;;;8.73;5.97;;;11.00;99.90;;;;;;5028535;28;20046;-79
2022/04/29 07:49:30;;;;;;;10.30;6.10;;;11.10;99.90;;;;;;5026784;28;20522;-79
2022/04/29 07:51:58;;;;;;;9.80;6.53;;;11.10;99.70;;;;;;5027259;28;20124;-78
2022/04/29 07:54:25;;;;;;;10.02;6.78;;;11.10;99.90;;;;;;5027561;28;20133;-79
2022/04/29 07:56:53;;;;;;;10.98;6.82;;;11.20;99.20;;;;;;5029577;28;20455;-80
2022/04/29 07:59:21;;;;;;;8.95;6.55;;;11.30;98.90;;;;;;5027445;28;20486;-82
2022/04/29 08:01:48;;;;;;;10.07;7.00;;;11.40;99.00;;;;;;5019682;28;20060;-82
2022/04/29 08:04:15;;;;;;;9.10;6.50;;;11.40;98.80;;;;;;5029487;28;20052;-82
2022/04/29 08:06:44;;;;;;;8.23;6.10;;;11.60;99.70;;;;;;5026471;28;20049;-82
2022/04/29 08:09:11;;;;;;;8.20;5.60;;;11.70;99.60;;;;;;5032711;28;20042;-82
2022/04/29 08:11:38;;;;;;;9.60;6.97;;;11.90;99.30;;;;;;5034652;28;20073;-82
2022/04/29 08:14:06;;;;;;;10.27;7.00;;;11.90;98.40;;;;;;5031783;28;20046;-81
2022/04/29 08:16:35;;;;;;;10.35;7.10;;;12.00;98.20;;;;;;5033530;28;20083;-82
2022/04/29 08:19:02;;;;;;;10.38;7.20;;;12.00;98.10;;;;;;5034529;28;20107;-82
2022/04/29 08:21:29;;;;;;;9.90;7.40;;;12.20;98.10;;;;;;5033589;28;20079;-86
2022/04/29 08:23:57;;;;;;;11.13;7.43;;;12.20;98.20;;;;;;5034376;28;20065;-83
2022/04/29 08:26:24;;;;;;;8.88;6.60;;;12.30;98.50;;;;;;5033429;28;20148;-82
2022/04/29 08:28:54;;;;;;;11.65;7.28;;;12.50;98.80;;;;;;5032723;28;20132;-83
2022/04/29 08:31:21;;;;;;;9.32;5.85;;;12.60;99.20;;;;;;5031939;28;20041;-83
2022/04/29 08:33:48;;;;;;;9.40;7.38;;;12.80;99.10;;;;;;5033135;28;20056;-83
2022/04/29 08:36:16;;;;;;;10.02;7.32;;;12.70;98.90;;;;;;5030019;28;20080;-84
2022/04/29 08:38:43;;;;;;;12.02;7.10;;;12.70;98.60;;;;;;5031011;28;20057;-84
2022/04/29 08:41:11;;;;;;;9.05;6.65;;;12.70;98.30;;;;;;5032816;28;20057;-84
2022/04/29 08:43:41;;;;;;;9.60;6.40;;;12.80;97.90;;;;;;5032670;28;20077;-82
2022/04/29 08:46:09;;;;;;;9.63;6.40;;;12.90;98.00;;;;;;5033524;28;20132;-82
2022/04/29 08:48:37;;;;;;;10.20;7.03;;;13.00;98.00;;;;;;5033457;28;20505;-83
2022/04/29 08:51:05;;;;;;;12.63;7.50;;;13.10;97.60;;;;;;5032337;28;20045;-84
2022/04/29 08:53:34;;;;;;;10.10;6.63;;;13.10;97.60;;;;;;5031367;28;20466;-82
2022/04/29 08:58:48;;;;;;;8.80;6.05;;;13.30;97.50;;;;;;5024529;28;20183;-84
2022/04/29 09:01:17;;;;;;;9.27;7.20;;;13.50;97.20;;;;;;5028748;28;20127;-83
2022/04/29 09:03:45;;;;;;;10.02;6.68;;;13.50;96.80;;;;;;5029804;28;20049;-84
2022/04/29 09:06:14;;;;;;;9.63;6.32;;;13.60;96.10;;;;;;5029594;28;20045;-87
2022/04/29 09:08:43;;;;;;;10.48;5.55;;;13.70;96.00;;;;;;5028052;28;20051;-86
2022/04/29 09:11:12;;;;;;;6.55;4.68;;;13.90;96.00;;;;;;5026716;28;20050;-83
2022/04/29 09:13:40;;;;;;;7.65;4.88;;;14.10;95.50;;;;;;5030703;28;20077;-84
2022/04/29 09:16:12;;;;;;;7.70;4.88;;;14.20;95.70;;;;;;5026448;28;20049;-84
2022/04/29 09:18:44;;;;;;;5.80;3.90;;;14.30;94.00;;;;;;5025892;28;20061;-84
2022/04/29 09:21:14;;;;;;;5.38;3.53;;;14.40;93.50;;;;;;5025497;28;20102;-85
2022/04/29 09:23:44;;;;;;;7.75;5.28;;;14.50;91.70;;;;;;5027078;28;20046;-81
2022/04/29 09:26:21;;;;;;;7.35;4.75;;;14.50;91.00;;;;;;5029187;28;20100;-83
2022/04/29 09:28:49;;;;;;;8.60;4.63;;;14.70;91.10;;;;;;5024545;28;20132;-82
2022/04/29 09:31:18;;;;;;;6.63;4.18;;;14.90;91.30;;;;;;5027592;28;20122;-83
2022/04/29 09:33:55;;;;;;;6.15;3.90;;;14.90;89.00;;;;;;5020401;28;20049;-83
2022/04/29 09:36:24;;;;;;;6.20;3.70;;;15.10;90.20;;;;;;5026301;28;20092;-83
2022/04/29 09:41:53;;;;;;;4.75;2.70;;;15.60;72.70;;;;;;5028026;28;20585;-81
2022/04/29 09:44:28;;;;;;;5.88;2.80;;;15.90;67.10;;;;;;5027963;28;20136;-81
2022/04/29 09:46:57;;;;;;;5.13;2.72;;;15.90;64.50;;;;;;5029701;28;20049;-81
2022/04/29 09:49:28;;;;;;;6.05;2.70;;;15.80;62.70;;;;;;5023316;28;20061;-82
2022/04/29 09:51:57;;;;;;;5.43;3.10;;;16.00;60.40;;;;;;5028289;28;20104;-80
2022/04/29 09:54:26;;;;;;;5.15;3.00;;;16.20;59.60;;;;;;5026376;28;20054;-83
2022/04/29 09:57:07;;;;;;;5.35;2.65;;;16.20;57.10;;;;;;5024019;28;20053;-82
2022/04/29 09:59:36;;;;;;;4.05;2.30;;;16.20;57.90;;;;;;5021330;28;20081;-82
2022/04/29 10:02:06;;;;;;;4.22;2.50;;;16.20;58.40;;;;;;5027119;28;20053;-84
2022/04/29 10:04:37;;;;;;;3.90;2.28;;;16.40;58.90;;;;;;5027205;28;20141;-84
2022/04/29 10:07:06;;;;;;;4.10;2.40;;;16.60;58.60;;;;;;5025041;28;20492;-84
2022/04/29 10:09:35;;;;;;;4.30;2.30;;;16.60;55.60;;;;;;5026626;28;20132;-83
2022/04/29 10:12:06;;;;;;;3.95;2.00;;;16.70;56.80;;;;;;5025532;28;20077;-81
2022/04/29 10:14:38;;;;;;;4.60;2.50;;;16.90;59.00;;;;;;5030708;28;20096;-82
2022/04/29 10:22:50;;;;;;;4.20;2.30;;;16.80;56.10;;;;;;5022107;28;20521;-82
2022/04/29 10:25:20;;;;;;;3.40;2.08;;;16.70;53.60;;;;;;5026186;28;20392;-81
2022/04/29 10:27:49;;;;;;;5.10;2.30;;;16.80;54.60;;;;;;5022018;28;20085;-81
2022/04/29 10:30:25;;;;;;;4.47;2.33;;;16.90;55.00;;;;;;5024188;28;20093;-81
2022/04/29 10:33:08;;;;;;;3.47;2.10;;;16.90;54.60;;;;;;5017755;28;20135;-81
2022/04/29 10:35:56;;;;;;;3.78;2.40;;;17.10;55.60;;;;;;5026968;28;20133;-80
2022/04/29 10:38:27;;;;;;;5.55;2.63;;;17.00;54.20;;;;;;5025477;28;20080;-80
2022/04/29 10:41:15;;;;;;;4.53;2.75;;;16.90;52.50;;;;;;5026595;28;20140;-81
2022/04/29 10:43:47;;;;;;;4.35;2.58;;;16.90;51.30;;;;;;5025478;28;20574;-81
2022/04/29 10:46:23;;;;;;;4.70;2.20;;;17.00;51.60;;;;;;5025693;28;20407;-80
2022/04/29 10:48:52;;;;;;;5.68;2.95;;;17.10;54.00;;;;;;5022600;28;20050;-82
2022/04/29 10:51:22;;;;;;;4.75;2.60;;;17.10;55.00;;;;;;5025641;28;20049;-81
2022/04/29 10:53:55;;;;;;;5.00;2.65;;;17.20;54.50;;;;;;5026402;28;20053;-80
2022/04/29 10:56:38;;;;;;;4.63;2.30;;;17.30;54.80;;;;;;5025314;28;20747;-78
2022/04/29 10:59:21;;;;;;;5.70;2.95;;;17.50;54.90;;;;;;5022747;28;20147;-78
2022/04/29 11:02:07;;;;;;;4.50;2.70;;;17.50;54.20;;;;;;5022797;28;20418;-78
2022/04/29 11:04:46;;;;;;;4.32;2.20;;;17.30;53.70;;;;;;5025161;28;20411;-78
2022/04/29 11:07:44;;;;;;;4.15;2.20;;;17.50;55.20;;;;;;5022750;28;20080;-78
2022/04/29 11:10:18;;;;;;;4.28;2.60;;;17.60;54.00;;;;;;5004452;28;20065;-79
2022/04/29 11:12:57;;;;;;;7.60;3.13;;;17.60;53.70;;;;;;5024126;28;20128;-80
2022/04/29 11:15:40;;;;;;;5.03;2.65;;;17.60;53.70;;;;;;5024344;28;20083;-80
2022/04/29 11:18:19;;;;;;;4.13;2.63;;;17.70;54.50;;;;;;5025280;28;20152;-79
2022/04/29 11:20:49;;;;;;;5.50;2.90;;;17.80;55.00;;;;;;5021494;28;20056;-79
2022/04/29 11:26:14;;;;;;;4.40;2.50;;;18.00;55.10;;;;;;5008050;28;20431;-79
2022/04/29 11:28:42;;;;;;;3.58;2.20;;;17.90;54.20;;;;;;5030654;28;20052;-81
2022/04/29 11:31:11;;;;;;;5.70;2.70;;;17.90;54.60;;;;;;5024476;28;20046;-81
2022/04/29 11:33:39;;;;;;;6.25;2.55;;;17.80;54.30;;;;;;5026424;28;20118;-82
2022/04/29 11:36:11;;;;;;;4.88;2.80;;;17.90;54.60;;;;;;5025527;28;20502;-81
2022/04/29 11:38:44;;;;;;;6.22;3.58;;;18.10;55.00;;;;;;5026958;28;20069;-82
2022/04/29 11:41:17;;;;;;;4.78;3.20;;;18.20;54.40;;;;;;5028458;28;20447;-83
2022/04/29 11:43:47;;;;;;;3.65;2.30;;;18.10;54.90;;;;;;5026903;28;20069;-83
2022/04/29 11:46:14;;;;;;;6.35;3.53;;;18.40;56.70;;;;;;5025759;28;20076;-82
2022/04/29 11:48:52;;;;;;;5.28;3.38;;;18.40;55.30;;;;;;5030077;28;20144;-82
2022/04/29 11:51:21;;;;;;;5.38;3.55;;;18.40;55.60;;;;;;5012726;28;20053;-81
2022/04/29 11:54:00;;;;;;;6.30;3.63;;;18.50;56.00;;;;;;5031331;28;20140;-81
2022/04/29 11:56:36;;;;;;;5.13;3.38;;;18.50;56.20;;;;;;5033911;28;20049;-82
2022/04/29 11:59:07;;;;;;;5.03;2.97;;;18.60;55.10;;;;;;5034131;28;20499;-82
2022/04/29 12:01:35;;;;;;;5.28;3.13;;;18.80;55.50;;;;;;5033769;28;20136;-83
2022/04/29 12:04:03;;;;;;;4.25;3.00;;;18.80;54.40;;;;;;5034140;28;20065;-82
2022/04/29 12:06:32;;;;;;;6.03;2.95;;;19.00;54.00;;;;;;5032389;28;20493;-82
2022/04/29 12:08:59;;;;;;;4.20;2.50;;;19.10;55.10;;;;;;5033694;28;20141;-82
2022/04/29 12:11:27;;;;;;;4.10;2.88;;;19.20;55.20;;;;;;5033704;28;20053;-82
2022/04/29 12:13:55;;;;;;;5.20;3.47;;;19.20;54.40;;;;;;5033933;28;20053;-81
2022/04/29 12:16:22;;;;;;;5.95;2.95;;;19.00;53.50;;;;;;5033964;28;20084;-82
2022/04/29 12:18:51;;;;;;;5.72;3.92;;;18.90;53.90;;;;;;5032818;28;20123;-83
2022/04/29 12:21:27;;;;;;;5.55;3.45;;;18.90;53.30;;;;;;5033301;28;20053;-82
2022/04/29 12:23:56;;;;;;;6.68;3.40;;;18.90;55.00;;;;;;5033479;28;20148;-82
2022/04/29 12:26:23;;;;;;;5.78;3.70;;;18.90;54.90;;;;;;5033458;28;20132;-82
2022/04/29 12:28:55;;;;;;;5.03;3.28;;;18.60;54.40;;;;;;5032350;28;20124;-83
2022/04/29 12:36:54;;;;;;;7.85;4.05;;;18.60;54.80;;;;;;5033801;28;20106;-82
2022/04/29 12:39:25;;;;;;;5.05;3.13;;;18.80;55.10;;;;;;5033507;28;20053;-83
2022/04/29 12:42:05;;;;;;;5.72;3.00;;;18.90;53.90;;;;;;5033542;28;20141;-82
2022/04/29 12:45:06;;;;;;;5.43;3.30;;;19.00;54.10;;;;;;5032866;28;20045;-83
2022/04/29 12:47:38;;;;;;;6.05;3.10;;;18.90;54.50;;;;;;5032966;28;20056;-83
2022/04/29 12:50:24;;;;;;;4.68;2.65;;;18.90;54.50;;;;;;5013960;28;20081;-84
2022/04/29 12:52:54;;;;;;;6.88;3.35;;;18.80;54.60;;;;;;5011979;28;20064;-83
2022/04/29 12:55:23;;;;;;;4.35;2.90;;;18.80;55.10;;;;;;5012287;28;20045;-83
2022/04/29 12:57:50;;;;;;;4.78;2.58;;;18.90;54.80;;;;;;5017179;28;20050;-84
2022/04/29 13:00:25;;;;;;;5.30;3.53;;;19.10;55.70;;;;;;5029622;28;20108;-82
2022/04/29 13:03:04;;;;;;;6.25;3.80;;;19.30;54.70;;;;;;5027459;28;20067;-82
2022/04/29 13:05:32;;;;;;;5.90;3.65;;;19.50;54.30;;;;;;5027924;28;20050;-83
2022/04/29 13:07:59;;;;;;;7.82;4.00;;;19.80;54.20;;;;;;5028406;28;20565;-82
2022/04/29 13:10:28;;;;;;;6.78;3.50;;;19.80;53.90;;;;;;5029904;28;20140;-82
2022/04/29 13:12:56;;;;;;;6.82;3.78;;;19.80;53.80;;;;;;5028430;28;20088;-83
2022/04/29 13:15:23;;;;;;;5.22;3.47;;;20.00;52.40;;;;;;5029598;28;20716;-82
2022/04/29 13:17:50;;;;;;;7.05;4.00;;;20.00;53.70;;;;;;5029306;28;20140;-83
2022/04/29 13:20:18;;;;;;;5.25;3.13;;;19.90;53.00;;;;;;5029271;28;20140;-82
2022/04/29 13:22:45;;;;;;;5.20;3.25;;;20.10;52.90;;;;;;5024824;28;20132;-81
2022/04/29 13:25:12;;;;;;;4.80;3.10;;;20.10;53.40;;;;;;5029743;28;20077;-82
2022/04/29 13:27:40;;;;;;;7.53;3.40;;;20.30;52.50;;;;;;5030603;28;20473;-82
2022/04/29 13:30:09;;;;;;;4.88;3.25;;;20.60;53.10;;;;;;5028870;28;20108;-82
2022/04/29 13:32:36;;;;;;;4.80;3.13;;;20.80;51.60;;;;;;5029412;28;20064;-84
2022/04/29 13:35:04;;;;;;;5.78;2.90;;;20.60;52.70;;;;;;5028261;28;20151;-82
2022/04/29 13:37:34;;;;;;;5.10;3.38;;;20.50;52.40;;;;;;5028293;28;20133;-83
2022/04/29 13:40:01;;;;;;;4.95;3.05;;;20.50;51.60;;;;;;5030080;28;20060;-83
2022/04/29 13:42:29;;;;;;;4.20;2.90;;;20.50;51.60;;;;;;5029651;28;20145;-83
2022/04/29 13:45:01;;;;;;;7.18;3.10;;;20.70;52.10;;;;;;5027855;28;20207;-81
2022/04/29 13:47:29;;;;;;;5.10;3.60;;;20.90;51.10;;;;;;5029676;28;20103;-81
2022/04/29 13:49:57;;;;;;;5.60;3.58;;;20.70;51.60;;;;;;5030446;28;20136;-81
2022/04/29 13:55:09;;;;;;;7.28;4.95;;;20.70;50.20;;;;;;5031848;28;20056;-80
2022/04/29 13:57:36;;;;;;;7.57;5.15;;;20.60;49.60;;;;;;5031370;28;20126;-80
2022/04/29 14:00:09;;;;;;;7.10;3.95;;;20.50;50.20;;;;;;5029713;28;20477;-79
2022/04/29 14:02:38;;;;;;;8.63;3.47;;;20.40;50.80;;;;;;5022844;28;20049;-81
2022/04/29 14:05:06;;;;;;;5.68;3.03;;;20.40;51.20;;;;;;5027836;28;20060;-80
2022/04/29 14:07:34;;;;;;;5.60;3.10;;;20.40;50.20;;;;;;5026414;28;20073;-81
2022/04/29 14:10:01;;;;;;;4.13;3.03;;;20.40;50.20;;;;;;5029301;28;20049;-80
2022/04/29 14:12:29;;;;;;;4.18;2.80;;;20.50;50.90;;;;;;5026448;28;20068;-80
2022/04/29 14:14:57;;;;;;;4.68;2.60;;;20.80;50.20;;;;;;5029337;28;20093;-80
2022/04/29 14:17:25;;;;;;;4.60;2.60;;;21.00;50.40;;;;;;5027504;28;20641;-79
2022/04/29 14:19:52;;;;;;;4.22;2.70;;;21.30;51.50;;;;;;5028621;28;20145;-80
2022/04/29 14:22:20;;;;;;;3.90;2.90;;;21.20;48.10;;;;;;5027701;28;20136;-80
2022/04/29 14:24:47;;;;;;;4.30;2.80;;;21.00;47.00;;;;;;5027887;28;20061;-80
2022/04/29 14:27:14;;;;;;;4.63;3.15;;;21.00;47.70;;;;;;5028022;28;20056;-80
2022/04/29 14:29:42;;;;;;;5.57;2.97;;;21.20;48.50;;;;;;5027161;28;20054;-80
2022/04/29 14:32:11;;;;;;;5.80;2.95;;;20.90;48.20;;;;;;5027944;28;20136;-80
2022/04/29 14:34:40;;;;;;;5.15;2.90;;;20.50;47.30;;;;;;5029210;28;20049;-80
2022/04/29 14:37:07;;;;;;;6.22;2.97;;;20.70;47.40;;;;;;5028616;28;20140;-80
2022/04/29 14:39:35;;;;;;;4.65;2.78;;;20.60;47.40;;;;;;5028251;28;20491;-79
2022/04/29 14:42:03;;;;;;;4.75;2.90;;;20.60;46.60;;;;;;5028868;28;20108;-80
2022/04/29 14:44:30;;;;;;;5.25;2.60;;;20.50;48.20;;;;;;5026734;28;20136;-80
2022/04/29 14:46:59;;;;;;;4.80;2.38;;;21.10;47.80;;;;;;5026607;28;20049;-80
2022/04/29 14:49:27;;;;;;;5.30;2.65;;;21.10;47.40;;;;;;5028394;28;20076;-81
2022/04/29 14:51:56;;;;;;;4.18;2.55;;;22.00;45.70;;;;;;5030796;28;20128;-81
2022/04/29 14:54:24;;;;;;;4.55;2.90;;;21.80;45.30;;;;;;5030753;28;20045;-85
2022/04/29 14:56:53;;;;;;;3.60;2.30;;;21.70;44.80;;;;;;5030392;28;20503;-84
2022/04/29 14:59:20;;;;;;;4.63;3.00;;;21.70;46.50;;;;;;5030493;28;20053;-84
2022/04/29 15:01:48;;;;;;;5.75;2.90;;;21.60;45.50;;;;;;5030519;28;20061;-84
2022/04/29 15:04:16;;;;;;;5.68;2.90;;;21.70;46.50;;;;;;5030718;28;20053;-85
2022/04/29 15:06:43;;;;;;;4.88;2.70;;;21.70;45.90;;;;;;5029524;28;20103;-84
2022/04/29 15:17:26;;;;;;;5.65;3.60;;;21.20;47.30;;;;;;5016528;28;20100;-83
2022/04/29 15:19:55;;;;;;;5.78;3.08;;;21.10;47.00;;;;;;5029306;28;20140;-83
2022/04/29 15:22:24;;;;;;;5.05;2.85;;;21.00;48.50;;;;;;5024889;28;20180;-82
2022/04/29 15:24:53;;;;;;;5.18;2.85;;;20.90;48.60;;;;;;5027319;28;20060;-82
2022/04/29 15:27:21;;;;;;;4.38;2.92;;;21.00;48.00;;;;;;5025962;28;20054;-83
2022/04/29 15:29:48;;;;;;;5.65;3.15;;;21.40;47.50;;;;;;5026949;28;20144;-90
2022/04/29 15:32:16;;;;;;;6.65;4.07;;;21.40;47.70;;;;;;5027745;28;20052;-93
2022/04/29 15:34:43;;;;;;;10.10;5.75;;;21.30;47.90;;;;;;5029544;28;20052;-81
2022/04/29 15:37:10;;;;;;;9.75;5.60;;;21.60;48.70;;;;;;5020181;28;20380;-84
2022/04/29 15:39:37;;;;;;;6.85;4.32;;;21.40;47.60;;;;;;5021217;28;20140;-84
2022/04/29 15:42:07;;;;;;;5.40;3.63;;;21.50;48.20;;;;;;5017380;28;20144;-85
2022/04/29 15:44:37;;;;;;;6.00;3.30;;;21.70;47.20;;;;;;5025545;28;20084;-81
2022/04/29 15:47:05;;;;;;;4.88;3.38;;;21.70;47.20;;;;;;5024861;28;20051;-79
2022/04/29 15:49:32;;;;;;;6.50;3.30;;;21.60;46.40;;;;;;5024046;28;20120;-80
2022/04/29 15:51:59;;;;;;;4.35;2.88;;;21.30;47.30;;;;;;5022720;28;20578;-81
2022/04/29 15:54:26;;;;;;;5.40;3.38;;;21.40;47.10;;;;;;5026739;28;20081;-83
2022/04/29 15:56:53;;;;;;;5.35;3.15;;;20.90;47.60;;;;;;5027315;28;20132;-81
2022/04/29 15:59:22;;;;;;;5.43;3.38;;;20.80;47.70;;;;;;5026269;28;20132;-81
2022/04/29 16:01:49;;;;;;;4.43;3.03;;;20.70;48.20;;;;;;5027362;28;20065;-81
2022/04/29 16:04:16;;;;;;;5.18;3.03;;;20.70;49.10;;;;;;5026570;28;20132;-81
2022/04/29 16:06:44;;;;;;;4.75;3.05;;;20.60;49.50;;;;;;5025677;28;20140;-81
2022/04/29 16:09:12;;;;;;;4.88;3.20;;;20.70;49.30;;;;;;5025007;28;20080;-81
2022/04/29 16:11:39;;;;;;;5.60;3.03;;;20.60;49.30;;;;;;5027191;28;20092;-81
2022/04/29 16:14:06;;;;;;;4.80;3.35;;;20.50;48.90;;;;;;5025370;28;20136;-81
2022/04/29 16:16:35;;;;;;;5.82;3.47;;;20.40;49.10;;;;;;5024690;28;20141;-79
2022/04/29 16:21:47;;;;;;;5.97;2.97;;;20.20;48.30;;;;;;5024546;28;20060;-79
2022/04/29 16:26:58;;;;;;;4.88;3.00;;;20.10;48.60;;;;;;5025026;28;20107;-80
2022/04/29 16:29:25;;;;;;;5.25;2.70;;;20.20;50.60;;;;;;5029491;28;20124;-80
2022/04/29 16:31:55;;;;;;;6.03;3.05;;;20.20;48.90;;;;;;5030476;28;20463;-80
2022/04/29 16:34:22;;;;;;;4.20;2.70;;;20.20;49.80;;;;;;5031664;28;20046;-79
2022/04/29 16:36:51;;;;;;;4.43;2.80;;;20.30;49.50;;;;;;5031790;28;20108;-79
2022/04/29 16:39:18;;;;;;;5.22;3.20;;;20.30;49.60;;;;;;5032653;28;20053;-80
2022/04/29 16:41:45;;;;;;;4.60;2.78;;;20.20;49.60;;;;;;5030541;28;20046;-79
2022/04/29 16:44:15;;;;;;;4.88;2.90;;;20.20;50.20;;;;;;5031460;28;20064;-79
2022/04/29 16:46:42;;;;;;;4.65;2.88;;;20.10;50.50;;;;;;5028560;28;20049;-78
2022/04/29 16:49:11;;;;;;;4.55;2.65;;;20.10;51.70;;;;;;5028637;28;20049;-79
2022/04/29 16:51:38;;;;;;;5.78;3.10;;;19.90;50.20;;;;;;5027468;28;20073;-81
2022/04/29 16:54:06;;;;;;;4.93;2.80;;;19.80;50.90;;;;;;5027996;28;20064;-81
2022/04/29 16:58:42;;;;;;;5.20;2.97;;;19.90;51.10;;;;;;5029642;28;20128;-80
2022/04/29 16:59:22;;;;;;;4.15;2.60;;;19.80;50.30;;;;;;5027293;28;20049;-80
2022/04/29 17:01:49;;;;;;;5.57;3.13;;;19.70;51.30;;;;;;5029101;28;20407;-80
2022/04/29 17:04:18;;;;;;;4.78;3.22;;;19.60;50.90;;;;;;5027992;28;20065;-80
2022/04/29 17:06:46;;;;;;;5.35;3.08;;;19.50;51.20;;;;;;5029821;28;20057;-80
2022/04/29 17:09:13;;;;;;;4.78;2.80;;;19.50;51.20;;;;;;5031255;28;20045;-80
2022/04/29 17:11:41;;;;;;;4.20;2.80;;;19.40;52.40;;;;;;5031918;28;20056;-80
2022/04/29 17:14:08;;;;;;;4.97;2.80;;;19.40;52.30;;;;;;5031526;28;20048;-81
2022/04/29 17:16:35;;;;;;;5.07;2.53;;;19.30;53.00;;;;;;5029267;28;20140;-80
2022/04/29 17:19:03;;;;;;;4.45;2.63;;;19.20;53.20;;;;;;5024888;28;21583;-85
2022/04/29 17:21:32;;;;;;;5.22;3.15;;;19.10;52.50;;;;;;5030802;28;20064;-80
2022/04/29 17:23:59;;;;;;;5.60;2.80;;;19.00;52.70;;;;;;5029540;28;20500;-78
2022/04/29 17:26:26;;;;;;;5.22;2.50;;;18.80;53.10;;;;;;5028887;28;20059;-81
2022/04/29 17:28:54;;;;;;;3.75;2.30;;;18.90;53.60;;;;;;5029803;28;20045;-80
2022/04/29 17:31:21;;;;;;;3.80;2.20;;;19.00;54.30;;;;;;5028744;28;20612;-80
2022/04/29 17:33:51;;;;;;;4.07;2.53;;;18.80;55.30;;;;;;5021777;28;20057;-81
2022/04/29 17:36:18;;;;;;;4.43;2.30;;;18.70;56.10;;;;;;5026813;28;20269;-82
2022/04/29 17:38:47;;;;;;;4.28;2.20;;;18.70;56.90;;;;;;5029769;28;20132;-80
2022/04/29 17:43:58;;;;;;;3.65;2.30;;;18.50;58.30;;;;;;5029312;28;20207;-81
2022/04/29 17:46:25;;;;;;;3.83;2.20;;;18.40;59.00;;;;;;5028726;28;20160;-83
2022/04/29 17:48:55;;;;;;;4.35;2.20;;;18.40;58.90;;;;;;5029601;28;20132;-84
2022/04/29 17:51:22;;;;;;;4.35;2.05;;;18.30;59.50;;;;;;5028602;28;20080;-78
2022/04/29 17:53:50;;;;;;;3.78;2.28;;;18.30;61.00;;;;;;5028558;28;20141;-81
2022/04/29 17:56:18;;;;;;;4.72;2.10;;;18.20;61.00;;;;;;5027150;28;20147;-81
2022/04/29 17:58:46;;;;;;;5.40;3.13;;;18.20;60.90;;;;;;5021040;28;20136;-81
2022/04/29 18:01:15;;;;;;;25.08;14.50;;;18.00;61.70;;;;;;5022394;28;20054;-82
2022/04/29 18:03:43;;;;;;;35.22;20.50;;;18.00;61.90;;;;;;5026615;28;20135;-82
2022/04/29 18:06:10;;;;;;;26.02;15.90;;;17.90;62.40;;;;;;5026227;28;20045;-80
2022/04/29 18:08:37;;;;;;;19.05;12.07;;;17.70;62.40;;;;;;5027585;28;20128;-80
2022/04/29 18:11:06;;;;;;;11.68;7.30;;;17.60;62.70;;;;;;5027974;28;20140;-81
2022/04/29 18:13:34;;;;;;;7.53;4.90;;;17.60;63.00;;;;;;5028065;28;20053;-82
2022/04/29 18:16:01;;;;;;;5.30;3.30;;;17.60;63.00;;;;;;5026515;28;20046;-81
2022/04/29 18:18:28;;;;;;;4.13;2.35;;;17.40;63.60;;;;;;5025297;28;20051;-82
2022/04/29 18:20:55;;;;;;;4.53;2.45;;;17.30;64.10;;;;;;5027630;28;20132;-80
2022/04/29 18:23:23;;;;;;;5.03;2.35;;;17.30;64.20;;;;;;5027664;28;20177;-81
2022/04/29 18:25:50;;;;;;;4.68;2.40;;;17.30;64.20;;;;;;5029044;28;20148;-80
2022/04/29 18:28:19;;;;;;;3.83;2.40;;;17.10;63.80;;;;;;5027144;28;20144;-81
2022/04/29 18:30:46;;;;;;;4.65;2.42;;;17.10;64.60;;;;;;5018970;28;20052;-81
2022/04/29 18:33:16;;;;;;;5.43;2.47;;;17.10;65.70;;;;;;5026572;28;20138;-81
2022/04/29 18:35:43;;;;;;;4.90;2.83;;;16.90;64.70;;;;;;5028153;28;20052;-81
2022/04/29 18:38:10;;;;;;;4.03;2.47;;;16.70;65.00;;;;;;5024772;28;20589;-81
2022/04/29 18:40:37;;;;;;;5.47;2.92;;;16.70;65.40;;;;;;5027417;28;20049;-80
2022/04/29 18:43:05;;;;;;;4.28;2.40;;;16.70;65.90;;;;;;5028602;28;20132;-82
2022/04/29 18:45:33;;;;;;;4.10;2.53;;;16.60;66.00;;;;;;5030231;28;20136;-83